sensor_id;sensor_type;location;lat;lon;timestamp;P1;durP1;ratioP1;P2;durP2;ratioP2
44774;SDS011;31340;51.402;0.016;2024-03-25T00:01:51;13.40;;;4.82;;
44774;SDS011;31340;51.402;0.016;2024-03-25T00:04:18;14.57;;;5.22;;
44774;SDS011;31340;51.402;0.016;2024-03-25T00:06:46;17.05;;;5.32;;
44774;SDS011;31340;51.402;0.016;2024-03-25T00:09:13;17.33;;;5.40;;
44774;SDS011;31340;51.402;0.016;2024-03-25T00:11:40;12.75;;;4.90;;
44774;SDS011;31340;51.402;0.016;2024-03-25T00:14:08;10.35;;;4.88;;
44774;SDS011;31340;51.402;0.016;2024-03-25T00:16:34;13.73;;;5.30;;
44774;SDS011;31340;51.402;0.016;2024-03-25T00:19:01;13.45;;;4.75;;
44774;SDS011;31340;51.402;0.016;2024-03-25T00:21:27;14.75;;;4.70;;
44774;SDS011;31340;51.402;0.016;2024-03-25T00:23:54;15.15;;;5.65;;
44774;SDS011;31340;51.402;0.016;2024-03-25T00:26:24;11.10;;;4.72;;
44774;SDS011;31340;51.402;0.016;2024-03-25T00:28:51;9.13;;;4.30;;
44774;SDS011;31340;51.402;0.016;2024-03-25T00:31:17;14.02;;;4.85;;
44774;SDS011;31340;51.402;0.016;2024-03-25T00:33:44;15.82;;;5.38;;
44774;SDS011;31340;51.402;0.016;2024-03-25T00:36:10;16.85;;;5.15;;
44774;SDS011;31340;51.402;0.016;2024-03-25T00:38:38;12.88;;;4.40;;
44774;SDS011;31340;51.402;0.016;2024-03-25T00:41:04;9.43;;;4.35;;
44774;SDS011;31340;51.402;0.016;2024-03-25T00:43:31;9.88;;;4.05;;
44774;SDS011;31340;51.402;0.016;2024-03-25T00:45:58;13.70;;;4.55;;
44774;SDS011;31340;51.402;0.016;2024-03-25T00:48:24;11.75;;;4.93;;
44774;SDS011;31340;51.402;0.016;2024-03-25T00:50:51;11.15;;;4.72;;
44774;SDS011;31340;51.402;0.016;2024-03-25T00:53:17;15.75;;;4.63;;
44774;SDS011;31340;51.402;0.016;2024-03-25T00:55:45;12.07;;;4.50;;
44774;SDS011;31340;51.402;0.016;2024-03-25T00:58:11;10.70;;;5.20;;
44774;SDS011;31340;51.402;0.016;2024-03-25T01:00:38;15.85;;;4.53;;
44774;SDS011;31340;51.402;0.016;2024-03-25T01:03:04;13.80;;;4.70;;
44774;SDS011;31340;51.402;0.016;2024-03-25T01:05:31;13.75;;;4.75;;
44774;SDS011;31340;51.402;0.016;2024-03-25T01:07:57;16.05;;;4.65;;
44774;SDS011;31340;51.402;0.016;2024-03-25T01:10:24;12.13;;;4.60;;
44774;SDS011;31340;51.402;0.016;2024-03-25T01:12:50;13.25;;;4.97;;
44774;SDS011;31340;51.402;0.016;2024-03-25T01:15:17;13.88;;;4.13;;
44774;SDS011;31340;51.402;0.016;2024-03-25T01:17:44;11.55;;;4.25;;
44774;SDS011;31340;51.402;0.016;2024-03-25T01:20:10;17.15;;;4.28;;
44774;SDS011;31340;51.402;0.016;2024-03-25T01:22:37;18.38;;;5.40;;
44774;SDS011;31340;51.402;0.016;2024-03-25T01:25:04;14.57;;;4.53;;
44774;SDS011;31340;51.402;0.016;2024-03-25T01:27:30;15.32;;;4.18;;
44774;SDS011;31340;51.402;0.016;2024-03-25T01:29:57;17.13;;;4.35;;
44774;SDS011;31340;51.402;0.016;2024-03-25T01:32:24;13.55;;;3.80;;
44774;SDS011;31340;51.402;0.016;2024-03-25T01:34:50;12.30;;;4.15;;
44774;SDS011;31340;51.402;0.016;2024-03-25T01:37:17;19.10;;;5.03;;
44774;SDS011;31340;51.402;0.016;2024-03-25T01:39:43;16.42;;;4.43;;
44774;SDS011;31340;51.402;0.016;2024-03-25T01:42:10;16.77;;;4.68;;
44774;SDS011;31340;51.402;0.016;2024-03-25T01:44:36;14.27;;;4.57;;
44774;SDS011;31340;51.402;0.016;2024-03-25T01:47:03;15.35;;;4.78;;
44774;SDS011;31340;51.402;0.016;2024-03-25T01:49:30;12.98;;;4.30;;
44774;SDS011;31340;51.402;0.016;2024-03-25T01:51:57;12.80;;;4.10;;
44774;SDS011;31340;51.402;0.016;2024-03-25T01:54:24;9.25;;;3.75;;
44774;SDS011;31340;51.402;0.016;2024-03-25T01:56:51;15.57;;;4.32;;
44774;SDS011;31340;51.402;0.016;2024-03-25T01:59:19;14.00;;;5.10;;
44774;SDS011;31340;51.402;0.016;2024-03-25T02:01:46;16.25;;;4.78;;
44774;SDS011;31340;51.402;0.016;2024-03-25T02:04:14;10.98;;;4.22;;
44774;SDS011;31340;51.402;0.016;2024-03-25T02:06:41;11.90;;;3.80;;
44774;SDS011;31340;51.402;0.016;2024-03-25T02:09:09;15.02;;;4.35;;
44774;SDS011;31340;51.402;0.016;2024-03-25T02:11:39;12.70;;;4.27;;
44774;SDS011;31340;51.402;0.016;2024-03-25T02:14:08;10.30;;;4.22;;
44774;SDS011;31340;51.402;0.016;2024-03-25T02:16:35;10.02;;;4.40;;
44774;SDS011;31340;51.402;0.016;2024-03-25T02:24:23;12.68;;;4.75;;
44774;SDS011;31340;51.402;0.016;2024-03-25T02:26:51;13.52;;;4.13;;
44774;SDS011;31340;51.402;0.016;2024-03-25T02:29:18;16.35;;;4.35;;
44774;SDS011;31340;51.402;0.016;2024-03-25T02:31:45;18.35;;;5.07;;
44774;SDS011;31340;51.402;0.016;2024-03-25T02:34:13;16.42;;;4.82;;
44774;SDS011;31340;51.402;0.016;2024-03-25T02:36:39;11.90;;;4.28;;
44774;SDS011;31340;51.402;0.016;2024-03-25T02:39:06;16.13;;;4.43;;
44774;SDS011;31340;51.402;0.016;2024-03-25T02:41:36;16.77;;;4.07;;
44774;SDS011;31340;51.402;0.016;2024-03-25T02:44:02;16.35;;;3.78;;
44774;SDS011;31340;51.402;0.016;2024-03-25T02:46:29;13.15;;;4.20;;
44774;SDS011;31340;51.402;0.016;2024-03-25T02:48:56;10.77;;;3.70;;
44774;SDS011;31340;51.402;0.016;2024-03-25T02:51:22;14.32;;;3.90;;
44774;SDS011;31340;51.402;0.016;2024-03-25T02:53:49;11.65;;;4.47;;
44774;SDS011;31340;51.402;0.016;2024-03-25T02:56:16;11.85;;;4.13;;
44774;SDS011;31340;51.402;0.016;2024-03-25T02:58:42;15.80;;;4.13;;
44774;SDS011;31340;51.402;0.016;2024-03-25T03:01:09;14.30;;;3.90;;
44774;SDS011;31340;51.402;0.016;2024-03-25T03:03:35;10.25;;;3.58;;
44774;SDS011;31340;51.402;0.016;2024-03-25T03:06:02;13.85;;;3.78;;
44774;SDS011;31340;51.402;0.016;2024-03-25T03:08:28;12.02;;;3.72;;
44774;SDS011;31340;51.402;0.016;2024-03-25T03:10:55;14.85;;;4.40;;
44774;SDS011;31340;51.402;0.016;2024-03-25T03:13:22;15.43;;;4.00;;
44774;SDS011;31340;51.402;0.016;2024-03-25T03:15:48;10.30;;;3.80;;
44774;SDS011;31340;51.402;0.016;2024-03-25T03:18:15;10.95;;;3.65;;
44774;SDS011;31340;51.402;0.016;2024-03-25T03:20:42;13.98;;;4.18;;
44774;SDS011;31340;51.402;0.016;2024-03-25T03:23:09;12.13;;;3.85;;
44774;SDS011;31340;51.402;0.016;2024-03-25T03:25:35;11.35;;;3.50;;
44774;SDS011;31340;51.402;0.016;2024-03-25T03:28:02;15.15;;;4.32;;
44774;SDS011;31340;51.402;0.016;2024-03-25T03:30:29;12.75;;;5.07;;
44774;SDS011;31340;51.402;0.016;2024-03-25T03:32:55;12.52;;;4.28;;
44774;SDS011;31340;51.402;0.016;2024-03-25T03:35:22;18.75;;;5.82;;
44774;SDS011;31340;51.402;0.016;2024-03-25T03:37:48;15.77;;;5.20;;
44774;SDS011;31340;51.402;0.016;2024-03-25T03:40:15;14.48;;;5.60;;
44774;SDS011;31340;51.402;0.016;2024-03-25T03:42:41;15.82;;;5.13;;
44774;SDS011;31340;51.402;0.016;2024-03-25T03:45:08;17.00;;;5.55;;
44774;SDS011;31340;51.402;0.016;2024-03-25T03:47:35;16.50;;;5.20;;
44774;SDS011;31340;51.402;0.016;2024-03-25T03:50:02;10.07;;;5.13;;
44774;SDS011;31340;51.402;0.016;2024-03-25T03:52:29;20.95;;;5.93;;
44774;SDS011;31340;51.402;0.016;2024-03-25T03:54:55;20.92;;;5.35;;
44774;SDS011;31340;51.402;0.016;2024-03-25T03:57:22;23.80;;;5.55;;
44774;SDS011;31340;51.402;0.016;2024-03-25T03:59:48;17.90;;;5.00;;
44774;SDS011;31340;51.402;0.016;2024-03-25T04:02:15;16.63;;;4.90;;
44774;SDS011;31340;51.402;0.016;2024-03-25T04:04:42;14.07;;;5.47;;
44774;SDS011;31340;51.402;0.016;2024-03-25T04:07:08;14.45;;;5.13;;
44774;SDS011;31340;51.402;0.016;2024-03-25T04:09:36;14.50;;;5.10;;
44774;SDS011;31340;51.402;0.016;2024-03-25T04:12:02;19.13;;;4.93;;
44774;SDS011;31340;51.402;0.016;2024-03-25T04:14:29;16.13;;;4.82;;
44774;SDS011;31340;51.402;0.016;2024-03-25T04:16:56;15.20;;;4.65;;
44774;SDS011;31340;51.402;0.016;2024-03-25T04:19:26;15.98;;;5.47;;
44774;SDS011;31340;51.402;0.016;2024-03-25T04:21:53;16.17;;;5.25;;
44774;SDS011;31340;51.402;0.016;2024-03-25T04:24:20;22.55;;;5.40;;
44774;SDS011;31340;51.402;0.016;2024-03-25T04:26:46;16.00;;;5.15;;
44774;SDS011;31340;51.402;0.016;2024-03-25T04:29:14;18.67;;;5.38;;
44774;SDS011;31340;51.402;0.016;2024-03-25T04:31:42;16.85;;;5.55;;
44774;SDS011;31340;51.402;0.016;2024-03-25T04:34:08;20.15;;;6.15;;
44774;SDS011;31340;51.402;0.016;2024-03-25T04:36:35;16.83;;;5.72;;
44774;SDS011;31340;51.402;0.016;2024-03-25T04:39:02;17.30;;;5.70;;
44774;SDS011;31340;51.402;0.016;2024-03-25T04:41:29;21.83;;;6.15;;
44774;SDS011;31340;51.402;0.016;2024-03-25T04:43:55;20.35;;;5.90;;
44774;SDS011;31340;51.402;0.016;2024-03-25T04:46:23;21.25;;;5.88;;
44774;SDS011;31340;51.402;0.016;2024-03-25T04:48:50;18.35;;;6.10;;
44774;SDS011;31340;51.402;0.016;2024-03-25T04:51:16;15.48;;;5.50;;
44774;SDS011;31340;51.402;0.016;2024-03-25T04:53:43;17.08;;;5.90;;
44774;SDS011;31340;51.402;0.016;2024-03-25T04:56:09;25.20;;;6.25;;
44774;SDS011;31340;51.402;0.016;2024-03-25T04:58:36;20.15;;;5.63;;
44774;SDS011;31340;51.402;0.016;2024-03-25T05:01:04;17.35;;;5.57;;
44774;SDS011;31340;51.402;0.016;2024-03-25T05:03:31;24.25;;;5.97;;
44774;SDS011;31340;51.402;0.016;2024-03-25T05:05:57;20.33;;;6.60;;
44774;SDS011;31340;51.402;0.016;2024-03-25T05:08:24;20.08;;;5.65;;
44774;SDS011;31340;51.402;0.016;2024-03-25T05:10:51;21.08;;;5.28;;
44774;SDS011;31340;51.402;0.016;2024-03-25T05:13:17;27.08;;;6.20;;
44774;SDS011;31340;51.402;0.016;2024-03-25T05:15:50;16.88;;;5.68;;
44774;SDS011;31340;51.402;0.016;2024-03-25T05:18:18;21.85;;;6.03;;
44774;SDS011;31340;51.402;0.016;2024-03-25T05:20:45;23.08;;;5.90;;
44774;SDS011;31340;51.402;0.016;2024-03-25T05:23:11;18.67;;;5.55;;
44774;SDS011;31340;51.402;0.016;2024-03-25T05:25:38;19.55;;;5.93;;
44774;SDS011;31340;51.402;0.016;2024-03-25T05:28:05;23.27;;;5.72;;
44774;SDS011;31340;51.402;0.016;2024-03-25T05:30:33;19.27;;;5.40;;
44774;SDS011;31340;51.402;0.016;2024-03-25T05:32:59;13.55;;;4.78;;
44774;SDS011;31340;51.402;0.016;2024-03-25T05:35:26;18.90;;;5.15;;
44774;SDS011;31340;51.402;0.016;2024-03-25T05:37:53;22.13;;;5.30;;
44774;SDS011;31340;51.402;0.016;2024-03-25T05:40:20;16.58;;;5.05;;
44774;SDS011;31340;51.402;0.016;2024-03-25T05:42:47;24.50;;;5.40;;
44774;SDS011;31340;51.402;0.016;2024-03-25T05:45:14;19.15;;;5.78;;
44774;SDS011;31340;51.402;0.016;2024-03-25T05:47:41;12.95;;;4.65;;
44774;SDS011;31340;51.402;0.016;2024-03-25T05:50:08;13.25;;;4.75;;
44774;SDS011;31340;51.402;0.016;2024-03-25T05:52:35;11.38;;;4.75;;
44774;SDS011;31340;51.402;0.016;2024-03-25T05:55:02;17.25;;;4.47;;
44774;SDS011;31340;51.402;0.016;2024-03-25T05:57:30;18.40;;;5.38;;
44774;SDS011;31340;51.402;0.016;2024-03-25T05:59:56;17.05;;;4.88;;
44774;SDS011;31340;51.402;0.016;2024-03-25T06:02:23;19.45;;;5.57;;
44774;SDS011;31340;51.402;0.016;2024-03-25T06:04:50;13.85;;;5.40;;
44774;SDS011;31340;51.402;0.016;2024-03-25T06:07:17;24.00;;;5.38;;
44774;SDS011;31340;51.402;0.016;2024-03-25T06:09:43;16.17;;;5.35;;
44774;SDS011;31340;51.402;0.016;2024-03-25T06:12:10;16.15;;;4.97;;
44774;SDS011;31340;51.402;0.016;2024-03-25T06:14:36;21.65;;;5.80;;
44774;SDS011;31340;51.402;0.016;2024-03-25T06:17:04;18.83;;;5.50;;
44774;SDS011;31340;51.402;0.016;2024-03-25T06:19:30;21.90;;;5.53;;
44774;SDS011;31340;51.402;0.016;2024-03-25T06:21:57;18.75;;;5.95;;
44774;SDS011;31340;51.402;0.016;2024-03-25T06:24:23;20.73;;;6.35;;
44774;SDS011;31340;51.402;0.016;2024-03-25T06:26:50;22.30;;;6.38;;
44774;SDS011;31340;51.402;0.016;2024-03-25T06:29:18;21.58;;;5.75;;
44774;SDS011;31340;51.402;0.016;2024-03-25T06:31:44;21.85;;;5.53;;
44774;SDS011;31340;51.402;0.016;2024-03-25T06:34:29;29.52;;;5.88;;
44774;SDS011;31340;51.402;0.016;2024-03-25T06:36:56;22.52;;;5.20;;
44774;SDS011;31340;51.402;0.016;2024-03-25T06:39:23;34.90;;;5.80;;
44774;SDS011;31340;51.402;0.016;2024-03-25T06:41:49;21.48;;;5.35;;
44774;SDS011;31340;51.402;0.016;2024-03-25T06:44:16;22.90;;;5.25;;
44774;SDS011;31340;51.402;0.016;2024-03-25T06:46:43;21.83;;;5.20;;
44774;SDS011;31340;51.402;0.016;2024-03-25T06:49:09;15.93;;;4.50;;
44774;SDS011;31340;51.402;0.016;2024-03-25T06:51:36;22.83;;;5.75;;
44774;SDS011;31340;51.402;0.016;2024-03-25T06:54:03;23.88;;;5.68;;
44774;SDS011;31340;51.402;0.016;2024-03-25T06:56:29;17.40;;;4.95;;
44774;SDS011;31340;51.402;0.016;2024-03-25T06:58:56;25.70;;;5.20;;
44774;SDS011;31340;51.402;0.016;2024-03-25T07:01:23;19.35;;;4.63;;
44774;SDS011;31340;51.402;0.016;2024-03-25T07:03:49;19.42;;;4.70;;
44774;SDS011;31340;51.402;0.016;2024-03-25T07:06:17;19.98;;;5.03;;
44774;SDS011;31340;51.402;0.016;2024-03-25T07:08:44;21.80;;;5.13;;
44774;SDS011;31340;51.402;0.016;2024-03-25T07:11:11;34.25;;;5.50;;
44774;SDS011;31340;51.402;0.016;2024-03-25T07:13:37;18.95;;;4.53;;
44774;SDS011;31340;51.402;0.016;2024-03-25T07:16:04;20.63;;;4.93;;
44774;SDS011;31340;51.402;0.016;2024-03-25T07:18:30;19.35;;;4.00;;
44774;SDS011;31340;51.402;0.016;2024-03-25T07:20:57;27.42;;;4.63;;
44774;SDS011;31340;51.402;0.016;2024-03-25T07:23:24;22.83;;;4.47;;
44774;SDS011;31340;51.402;0.016;2024-03-25T07:25:50;18.17;;;3.92;;
44774;SDS011;31340;51.402;0.016;2024-03-25T07:28:17;20.23;;;3.92;;
44774;SDS011;31340;51.402;0.016;2024-03-25T07:30:43;26.58;;;4.90;;
44774;SDS011;31340;51.402;0.016;2024-03-25T07:33:10;23.00;;;4.60;;
44774;SDS011;31340;51.402;0.016;2024-03-25T07:35:36;19.17;;;3.80;;
44774;SDS011;31340;51.402;0.016;2024-03-25T07:38:03;18.73;;;4.53;;
44774;SDS011;31340;51.402;0.016;2024-03-25T07:40:30;15.75;;;4.13;;
44774;SDS011;31340;51.402;0.016;2024-03-25T07:42:57;21.85;;;4.07;;
44774;SDS011;31340;51.402;0.016;2024-03-25T07:45:24;24.02;;;4.60;;
44774;SDS011;31340;51.402;0.016;2024-03-25T07:47:52;17.48;;;3.85;;
44774;SDS011;31340;51.402;0.016;2024-03-25T07:50:19;25.60;;;4.40;;
44774;SDS011;31340;51.402;0.016;2024-03-25T07:52:46;28.25;;;5.22;;
44774;SDS011;31340;51.402;0.016;2024-03-25T07:55:12;21.25;;;4.85;;
44774;SDS011;31340;51.402;0.016;2024-03-25T07:57:39;20.25;;;4.70;;
44774;SDS011;31340;51.402;0.016;2024-03-25T08:00:06;17.48;;;4.10;;
44774;SDS011;31340;51.402;0.016;2024-03-25T08:02:40;21.20;;;4.07;;
44774;SDS011;31340;51.402;0.016;2024-03-25T08:05:07;23.05;;;5.70;;
44774;SDS011;31340;51.402;0.016;2024-03-25T08:07:34;25.83;;;4.68;;
44774;SDS011;31340;51.402;0.016;2024-03-25T08:10:01;21.27;;;4.72;;
44774;SDS011;31340;51.402;0.016;2024-03-25T08:12:30;14.07;;;3.80;;
44774;SDS011;31340;51.402;0.016;2024-03-25T08:14:56;11.52;;;2.97;;
44774;SDS011;31340;51.402;0.016;2024-03-25T08:17:23;25.75;;;4.80;;
44774;SDS011;31340;51.402;0.016;2024-03-25T08:19:50;18.58;;;4.18;;
44774;SDS011;31340;51.402;0.016;2024-03-25T08:22:16;19.63;;;4.10;;
44774;SDS011;31340;51.402;0.016;2024-03-25T08:24:43;20.77;;;4.63;;
44774;SDS011;31340;51.402;0.016;2024-03-25T08:27:09;28.75;;;4.95;;
44774;SDS011;31340;51.402;0.016;2024-03-25T08:29:36;12.77;;;4.03;;
44774;SDS011;31340;51.402;0.016;2024-03-25T08:32:02;21.23;;;4.70;;
44774;SDS011;31340;51.402;0.016;2024-03-25T08:34:29;17.08;;;3.55;;
44774;SDS011;31340;51.402;0.016;2024-03-25T08:36:56;17.83;;;5.65;;
44774;SDS011;31340;51.402;0.016;2024-03-25T08:39:23;31.13;;;8.30;;
44774;SDS011;31340;51.402;0.016;2024-03-25T08:41:49;20.05;;;4.95;;
44774;SDS011;31340;51.402;0.016;2024-03-25T08:44:16;19.58;;;6.00;;
44774;SDS011;31340;51.402;0.016;2024-03-25T08:46:43;17.75;;;4.18;;
44774;SDS011;31340;51.402;0.016;2024-03-25T08:49:09;26.20;;;8.48;;
44774;SDS011;31340;51.402;0.016;2024-03-25T08:51:36;23.13;;;6.50;;
44774;SDS011;31340;51.402;0.016;2024-03-25T08:54:02;22.10;;;5.30;;
44774;SDS011;31340;51.402;0.016;2024-03-25T08:56:29;19.38;;;5.18;;
44774;SDS011;31340;51.402;0.016;2024-03-25T08:58:56;19.83;;;5.75;;
44774;SDS011;31340;51.402;0.016;2024-03-25T09:01:23;13.50;;;3.63;;
44774;SDS011;31340;51.402;0.016;2024-03-25T09:03:50;18.27;;;3.63;;
44774;SDS011;31340;51.402;0.016;2024-03-25T09:06:17;14.25;;;4.20;;
44774;SDS011;31340;51.402;0.016;2024-03-25T09:08:43;15.25;;;4.47;;
44774;SDS011;31340;51.402;0.016;2024-03-25T09:11:29;18.83;;;3.65;;
44774;SDS011;31340;51.402;0.016;2024-03-25T09:13:55;12.15;;;3.25;;
44774;SDS011;31340;51.402;0.016;2024-03-25T09:16:22;17.00;;;4.57;;
44774;SDS011;31340;51.402;0.016;2024-03-25T09:18:48;20.25;;;3.70;;
44774;SDS011;31340;51.402;0.016;2024-03-25T09:21:15;18.52;;;4.15;;
44774;SDS011;31340;51.402;0.016;2024-03-25T09:23:42;20.27;;;4.75;;
44774;SDS011;31340;51.402;0.016;2024-03-25T09:26:08;16.58;;;4.93;;
44774;SDS011;31340;51.402;0.016;2024-03-25T09:28:36;22.00;;;5.25;;
44774;SDS011;31340;51.402;0.016;2024-03-25T09:31:03;15.25;;;4.45;;
44774;SDS011;31340;51.402;0.016;2024-03-25T09:33:31;11.82;;;3.30;;
44774;SDS011;31340;51.402;0.016;2024-03-25T09:36:00;12.32;;;3.20;;
44774;SDS011;31340;51.402;0.016;2024-03-25T09:38:26;13.07;;;3.13;;
44774;SDS011;31340;51.402;0.016;2024-03-25T09:40:54;14.73;;;3.63;;
44774;SDS011;31340;51.402;0.016;2024-03-25T09:43:32;14.65;;;3.35;;
44774;SDS011;31340;51.402;0.016;2024-03-25T09:46:06;11.73;;;3.17;;
44774;SDS011;31340;51.402;0.016;2024-03-25T09:48:36;17.92;;;3.70;;
44774;SDS011;31340;51.402;0.016;2024-03-25T09:51:04;7.82;;;2.80;;
44774;SDS011;31340;51.402;0.016;2024-03-25T09:53:31;12.35;;;3.20;;
44774;SDS011;31340;51.402;0.016;2024-03-25T09:55:58;9.77;;;3.13;;
44774;SDS011;31340;51.402;0.016;2024-03-25T09:58:25;14.75;;;3.38;;
44774;SDS011;31340;51.402;0.016;2024-03-25T10:00:52;9.82;;;3.15;;
44774;SDS011;31340;51.402;0.016;2024-03-25T10:03:21;8.50;;;2.83;;
44774;SDS011;31340;51.402;0.016;2024-03-25T10:05:48;12.45;;;3.03;;
44774;SDS011;31340;51.402;0.016;2024-03-25T10:08:19;10.95;;;2.60;;
44774;SDS011;31340;51.402;0.016;2024-03-25T10:10:53;16.40;;;3.92;;
44774;SDS011;31340;51.402;0.016;2024-03-25T10:13:24;16.25;;;3.58;;
44774;SDS011;31340;51.402;0.016;2024-03-25T10:18:20;14.43;;;3.40;;
44774;SDS011;31340;51.402;0.016;2024-03-25T10:20:47;18.65;;;3.67;;
44774;SDS011;31340;51.402;0.016;2024-03-25T10:23:23;18.05;;;3.53;;
44774;SDS011;31340;51.402;0.016;2024-03-25T10:25:52;14.63;;;3.63;;
44774;SDS011;31340;51.402;0.016;2024-03-25T10:28:20;14.00;;;4.03;;
44774;SDS011;31340;51.402;0.016;2024-03-25T10:30:47;13.73;;;3.13;;
44774;SDS011;31340;51.402;0.016;2024-03-25T10:33:13;14.52;;;3.65;;
44774;SDS011;31340;51.402;0.016;2024-03-25T10:35:40;18.10;;;2.83;;
44774;SDS011;31340;51.402;0.016;2024-03-25T10:38:07;9.77;;;2.92;;
44774;SDS011;31340;51.402;0.016;2024-03-25T10:40:37;15.35;;;4.00;;
44774;SDS011;31340;51.402;0.016;2024-03-25T10:43:09;16.98;;;3.00;;
44774;SDS011;31340;51.402;0.016;2024-03-25T10:45:38;10.93;;;3.05;;
44774;SDS011;31340;51.402;0.016;2024-03-25T10:50:37;23.65;;;4.90;;
44774;SDS011;31340;51.402;0.016;2024-03-25T10:53:05;16.10;;;3.53;;
44774;SDS011;31340;51.402;0.016;2024-03-25T10:55:34;11.93;;;2.97;;
44774;SDS011;31340;51.402;0.016;2024-03-25T10:58:03;16.20;;;4.43;;
44774;SDS011;31340;51.402;0.016;2024-03-25T11:00:30;12.20;;;3.00;;
44774;SDS011;31340;51.402;0.016;2024-03-25T11:02:58;16.58;;;3.38;;
44774;SDS011;31340;51.402;0.016;2024-03-25T11:05:25;13.65;;;2.85;;
44774;SDS011;31340;51.402;0.016;2024-03-25T11:07:52;22.10;;;3.85;;
44774;SDS011;31340;51.402;0.016;2024-03-25T11:10:19;17.20;;;3.70;;
44774;SDS011;31340;51.402;0.016;2024-03-25T11:12:55;16.13;;;4.03;;
44774;SDS011;31340;51.402;0.016;2024-03-25T11:15:22;15.02;;;3.33;;
44774;SDS011;31340;51.402;0.016;2024-03-25T11:17:49;17.17;;;3.70;;
44774;SDS011;31340;51.402;0.016;2024-03-25T11:20:17;18.33;;;3.95;;
44774;SDS011;31340;51.402;0.016;2024-03-25T11:22:50;11.82;;;3.75;;
44774;SDS011;31340;51.402;0.016;2024-03-25T11:25:19;13.68;;;3.08;;
44774;SDS011;31340;51.402;0.016;2024-03-25T11:27:47;20.92;;;3.78;;
44774;SDS011;31340;51.402;0.016;2024-03-25T11:30:14;16.45;;;4.00;;
44774;SDS011;31340;51.402;0.016;2024-03-25T11:32:45;18.85;;;3.95;;
44774;SDS011;31340;51.402;0.016;2024-03-25T11:35:18;19.60;;;4.32;;
44774;SDS011;31340;51.402;0.016;2024-03-25T11:37:45;18.67;;;4.28;;
44774;SDS011;31340;51.402;0.016;2024-03-25T11:40:12;11.10;;;3.70;;
44774;SDS011;31340;51.402;0.016;2024-03-25T11:42:40;16.15;;;4.43;;
44774;SDS011;31340;51.402;0.016;2024-03-25T11:45:14;15.77;;;3.33;;
44774;SDS011;31340;51.402;0.016;2024-03-25T11:47:45;15.55;;;4.47;;
44774;SDS011;31340;51.402;0.016;2024-03-25T11:50:14;15.60;;;3.42;;
44774;SDS011;31340;51.402;0.016;2024-03-25T11:52:44;21.27;;;3.80;;
44774;SDS011;31340;51.402;0.016;2024-03-25T11:55:18;16.40;;;3.90;;
44774;SDS011;31340;51.402;0.016;2024-03-25T11:57:45;13.68;;;3.40;;
44774;SDS011;31340;51.402;0.016;2024-03-25T12:00:12;18.98;;;3.70;;
44774;SDS011;31340;51.402;0.016;2024-03-25T12:02:47;19.77;;;4.30;;
44774;SDS011;31340;51.402;0.016;2024-03-25T12:05:16;16.45;;;4.25;;
44774;SDS011;31340;51.402;0.016;2024-03-25T12:07:43;21.90;;;4.38;;
44774;SDS011;31340;51.402;0.016;2024-03-25T12:10:10;10.65;;;2.90;;
44774;SDS011;31340;51.402;0.016;2024-03-25T12:12:57;14.50;;;3.22;;
44774;SDS011;31340;51.402;0.016;2024-03-25T12:15:23;13.68;;;3.78;;
44774;SDS011;31340;51.402;0.016;2024-03-25T12:17:50;14.95;;;3.22;;
44774;SDS011;31340;51.402;0.016;2024-03-25T12:20:19;14.23;;;3.78;;
44774;SDS011;31340;51.402;0.016;2024-03-25T12:22:46;11.77;;;3.00;;
44774;SDS011;31340;51.402;0.016;2024-03-25T12:25:14;11.60;;;3.42;;
44774;SDS011;31340;51.402;0.016;2024-03-25T12:27:41;11.20;;;3.55;;
44774;SDS011;31340;51.402;0.016;2024-03-25T12:30:12;19.30;;;3.38;;
44774;SDS011;31340;51.402;0.016;2024-03-25T12:32:39;16.60;;;4.30;;
44774;SDS011;31340;51.402;0.016;2024-03-25T12:35:11;11.32;;;3.03;;
44774;SDS011;31340;51.402;0.016;2024-03-25T12:37:39;16.67;;;3.40;;
44774;SDS011;31340;51.402;0.016;2024-03-25T12:40:07;19.30;;;4.95;;
44774;SDS011;31340;51.402;0.016;2024-03-25T12:42:36;13.32;;;3.92;;
44774;SDS011;31340;51.402;0.016;2024-03-25T12:45:05;14.93;;;3.90;;
44774;SDS011;31340;51.402;0.016;2024-03-25T12:47:32;16.45;;;3.42;;
44774;SDS011;31340;51.402;0.016;2024-03-25T12:49:59;13.48;;;3.60;;
44774;SDS011;31340;51.402;0.016;2024-03-25T12:52:26;12.98;;;3.80;;
44774;SDS011;31340;51.402;0.016;2024-03-25T12:54:52;16.50;;;5.40;;
44774;SDS011;31340;51.402;0.016;2024-03-25T12:57:19;14.35;;;3.15;;
44774;SDS011;31340;51.402;0.016;2024-03-25T12:59:46;12.90;;;3.25;;
44774;SDS011;31340;51.402;0.016;2024-03-25T13:02:12;12.90;;;3.78;;
44774;SDS011;31340;51.402;0.016;2024-03-25T13:04:40;15.63;;;3.55;;
44774;SDS011;31340;51.402;0.016;2024-03-25T13:07:10;14.43;;;4.15;;
44774;SDS011;31340;51.402;0.016;2024-03-25T13:09:37;15.45;;;3.95;;
44774;SDS011;31340;51.402;0.016;2024-03-25T13:12:03;12.98;;;4.15;;
44774;SDS011;31340;51.402;0.016;2024-03-25T13:14:30;13.93;;;4.00;;
44774;SDS011;31340;51.402;0.016;2024-03-25T13:16:57;16.02;;;4.05;;
44774;SDS011;31340;51.402;0.016;2024-03-25T13:19:23;17.45;;;4.35;;
44774;SDS011;31340;51.402;0.016;2024-03-25T13:21:55;13.23;;;4.00;;
44774;SDS011;31340;51.402;0.016;2024-03-25T13:24:22;11.05;;;3.47;;
44774;SDS011;31340;51.402;0.016;2024-03-25T13:26:48;15.43;;;3.50;;
44774;SDS011;31340;51.402;0.016;2024-03-25T13:29:15;18.42;;;3.20;;
44774;SDS011;31340;51.402;0.016;2024-03-25T13:31:42;12.30;;;4.43;;
44774;SDS011;31340;51.402;0.016;2024-03-25T13:34:09;13.70;;;3.15;;
44774;SDS011;31340;51.402;0.016;2024-03-25T13:36:36;12.48;;;3.58;;
44774;SDS011;31340;51.402;0.016;2024-03-25T13:39:03;14.48;;;3.42;;
44774;SDS011;31340;51.402;0.016;2024-03-25T13:41:30;10.93;;;3.13;;
44774;SDS011;31340;51.402;0.016;2024-03-25T13:43:58;9.13;;;2.85;;
44774;SDS011;31340;51.402;0.016;2024-03-25T13:46:25;14.07;;;3.03;;
44774;SDS011;31340;51.402;0.016;2024-03-25T13:48:52;13.30;;;3.42;;
44774;SDS011;31340;51.402;0.016;2024-03-25T13:51:18;14.77;;;3.47;;
44774;SDS011;31340;51.402;0.016;2024-03-25T13:53:45;20.10;;;3.60;;
44774;SDS011;31340;51.402;0.016;2024-03-25T13:56:12;9.55;;;3.38;;
44774;SDS011;31340;51.402;0.016;2024-03-25T13:58:38;7.47;;;2.75;;
44774;SDS011;31340;51.402;0.016;2024-03-25T14:01:05;12.63;;;3.28;;
44774;SDS011;31340;51.402;0.016;2024-03-25T14:03:33;17.42;;;4.00;;
44774;SDS011;31340;51.402;0.016;2024-03-25T14:06:00;11.55;;;3.88;;
44774;SDS011;31340;51.402;0.016;2024-03-25T14:08:26;11.55;;;4.22;;
44774;SDS011;31340;51.402;0.016;2024-03-25T14:11:00;13.70;;;3.35;;
44774;SDS011;31340;51.402;0.016;2024-03-25T14:13:27;11.40;;;3.70;;
44774;SDS011;31340;51.402;0.016;2024-03-25T14:15:54;15.68;;;2.80;;
44774;SDS011;31340;51.402;0.016;2024-03-25T14:18:21;18.27;;;3.60;;
44774;SDS011;31340;51.402;0.016;2024-03-25T14:20:49;12.00;;;3.10;;
44774;SDS011;31340;51.402;0.016;2024-03-25T14:23:19;14.38;;;3.08;;
44774;SDS011;31340;51.402;0.016;2024-03-25T14:25:45;11.48;;;2.75;;
44774;SDS011;31340;51.402;0.016;2024-03-25T14:28:12;11.77;;;2.67;;
44774;SDS011;31340;51.402;0.016;2024-03-25T14:30:38;12.13;;;2.92;;
44774;SDS011;31340;51.402;0.016;2024-03-25T14:33:06;10.93;;;3.25;;
44774;SDS011;31340;51.402;0.016;2024-03-25T14:35:32;8.35;;;2.10;;
44774;SDS011;31340;51.402;0.016;2024-03-25T14:37:59;15.27;;;3.05;;
44774;SDS011;31340;51.402;0.016;2024-03-25T14:40:27;13.32;;;2.42;;
44774;SDS011;31340;51.402;0.016;2024-03-25T14:42:53;11.73;;;2.88;;
44774;SDS011;31340;51.402;0.016;2024-03-25T14:45:20;11.57;;;2.15;;
44774;SDS011;31340;51.402;0.016;2024-03-25T14:47:47;8.68;;;2.42;;